CPX239 Details

Departure: Miami International Airport (KMIA)
Arrival: Luis Munoz Marin International Airport (TJSJ) at N/A
Route: SKIPS2 SKIPS Y290 BEANO
Notes:


Current Weather Information
KMIA 230653Z 00000KT 10SM FEW250 27/23 A2997 RMK AO2 SLP149 T02670228
TJSJ 230656Z 00000KT 9SM -RA SCT022 SCT033 SCT065 25/24 A2988 RMK AO2 SLP118 OCNL LTGIC DSNT E CB DSNT E P0000 T02500239 $